Time;durP1;ratioP1;P1;durP2;ratioP2;P2;SDS_P1;SDS_P2;PMS_P1;PMS_P2;Temp;Humidity;BMP_temperature;BMP_pressure;BME280_temperature;BME280_humidity;BME280_pressure;Samples;Min_cycle;Max_cycle;Signal;HPM_P1;HPM_P2
2023/08/03 00:01:02;;;;;;;11.18;1.00;;;17.60;99.90;;;17.21;100.00;96050.88;5006623;28;20053;-77
2023/08/03 00:03:30;;;;;;;6.47;0.98;;;17.60;99.90;;;17.16;100.00;96067.03;5007017;28;20133;-78
2023/08/03 00:05:57;;;;;;;7.43;1.05;;;17.60;99.90;;;17.18;100.00;96088.69;5008688;28;20527;-78
2023/08/03 00:08:25;;;;;;;11.27;1.02;;;17.60;99.90;;;17.09;100.00;96072.00;5001247;28;20046;-77
2023/08/03 00:10:52;;;;;;;6.13;0.70;;;17.60;99.90;;;17.03;100.00;96117.13;5009064;28;20123;-78
2023/08/03 00:13:19;;;;;;;7.35;0.90;;;17.50;99.90;;;16.96;100.00;96115.22;5007336;28;20144;-77
2023/08/03 00:15:46;;;;;;;6.78;0.70;;;17.40;99.90;;;16.62;100.00;96132.19;5009920;28;20042;-78
2023/08/03 00:18:13;;;;;;;8.80;0.95;;;17.10;99.90;;;16.14;100.00;96126.91;5003109;28;20081;-77
2023/08/03 00:20:40;;;;;;;9.98;1.50;;;16.90;99.90;;;15.71;100.00;96144.56;5008198;28;20096;-78
2023/08/03 00:23:07;;;;;;;8.00;1.42;;;16.50;99.90;;;15.45;100.00;96194.66;5012407;28;20438;-78
2023/08/03 00:25:34;;;;;;;10.43;1.20;;;16.20;99.90;;;15.45;100.00;96212.13;5006171;28;20049;-78
2023/08/03 00:28:01;;;;;;;6.25;1.33;;;16.10;99.90;;;15.50;100.00;96204.72;5009516;28;20061;-77
2023/08/03 00:30:29;;;;;;;8.30;0.88;;;16.10;99.90;;;15.53;100.00;96194.03;5005726;28;20501;-77
2023/08/03 00:32:56;;;;;;;8.75;1.10;;;16.10;99.90;;;15.59;100.00;96203.94;5009087;28;20093;-77
2023/08/03 00:35:23;;;;;;;6.22;1.00;;;16.10;99.90;;;15.73;100.00;96209.84;5006281;28;20132;-77
2023/08/03 00:37:51;;;;;;;11.75;1.58;;;16.20;99.90;;;15.85;100.00;96187.84;5005230;28;20038;-76
2023/08/03 00:40:19;;;;;;;6.57;1.10;;;16.30;99.90;;;15.72;100.00;96153.25;5007839;28;20482;-76
2023/08/03 00:42:46;;;;;;;12.60;1.50;;;16.30;99.90;;;15.51;100.00;96195.94;4988368;28;20054;-77
2023/08/03 00:45:13;;;;;;;10.43;1.30;;;16.20;99.90;;;15.56;100.00;96212.06;4997834;28;20057;-78
2023/08/03 00:47:41;;;;;;;7.47;1.02;;;16.10;99.90;;;15.68;100.00;96157.88;4991331;28;20082;-76
2023/08/03 00:50:08;;;;;;;7.40;1.13;;;16.30;99.90;;;15.73;100.00;96199.38;5006440;28;20112;-76
2023/08/03 00:52:36;;;;;;;11.80;1.50;;;16.30;99.90;;;15.65;100.00;96197.38;5009065;28;20053;-76
2023/08/03 00:55:07;;;;;;;6.85;0.88;;;16.20;99.90;;;15.50;100.00;96223.03;5001782;28;20224;-76
2023/08/03 00:57:34;;;;;;;8.55;1.33;;;16.10;99.90;;;15.18;100.00;96225.72;5009157;28;20127;-76
2023/08/03 01:00:02;;;;;;;6.65;0.98;;;15.90;99.90;;;15.09;100.00;96221.25;5001733;28;20045;-78
2023/08/03 01:02:29;;;;;;;11.25;1.40;;;15.70;99.90;;;14.94;100.00;96288.66;4999632;28;20057;-77
2023/08/03 01:04:56;;;;;;;12.63;1.77;;;15.60;99.90;;;14.83;100.00;96234.69;5001972;28;20575;-77
2023/08/03 01:07:23;;;;;;;5.68;1.63;;;15.50;99.90;;;14.64;100.00;96279.69;5003801;28;20046;-77
2023/08/03 01:09:51;;;;;;;7.57;0.95;;;15.40;99.90;;;14.57;100.00;96288.97;5008423;28;20425;-77
2023/08/03 01:12:18;;;;;;;6.53;1.10;;;15.20;99.90;;;14.55;100.00;96317.84;5007212;28;20045;-77
2023/08/03 01:14:46;;;;;;;13.18;1.10;;;15.10;99.90;;;14.52;100.00;96310.19;5006224;28;20061;-76
2023/08/03 01:17:13;;;;;;;6.88;1.02;;;15.10;99.90;;;14.59;100.00;96303.56;5004825;28;20159;-77
2023/08/03 01:19:40;;;;;;;6.22;0.70;;;15.00;99.90;;;14.51;100.00;96308.56;5007364;28;20540;-77
2023/08/03 01:22:12;;;;;;;15.82;1.20;;;15.00;99.90;;;14.55;100.00;96302.19;5001596;28;20045;-78
2023/08/03 01:24:40;;;;;;;7.35;0.95;;;15.00;99.90;;;14.58;100.00;96301.09;5002850;28;20066;-77
2023/08/03 01:27:07;;;;;;;7.35;0.90;;;15.00;99.90;;;14.59;100.00;96306.19;5003773;28;20053;-77
2023/08/03 01:29:34;;;;;;;11.43;0.80;;;15.00;99.90;;;14.68;100.00;96285.53;5006147;28;20078;-77
2023/08/03 01:32:01;;;;;;;9.80;0.90;;;15.10;99.90;;;14.88;100.00;96291.78;5006327;28;20061;-77
2023/08/03 01:34:29;;;;;;;7.03;1.25;;;15.20;99.90;;;14.82;100.00;96277.41;5005808;28;20046;-75
2023/08/03 01:36:56;;;;;;;10.27;1.40;;;15.20;99.90;;;14.99;100.00;96282.09;5002815;28;20824;-77
2023/08/03 01:39:27;;;;;;;8.55;0.80;;;15.30;99.90;;;14.95;100.00;96277.25;5007295;28;20481;-76
2023/08/03 01:41:54;;;;;;;8.18;1.17;;;15.30;99.90;;;14.90;100.00;96261.13;5006542;28;20050;-77
2023/08/03 01:44:27;;;;;;;11.15;1.23;;;15.40;99.90;;;14.88;100.00;96242.97;4988814;28;20054;-77
2023/08/03 01:46:57;;;;;;;6.65;0.98;;;15.40;99.90;;;14.86;100.00;96276.22;5006293;28;20046;-77
2023/08/03 01:49:28;;;;;;;6.65;1.15;;;15.30;99.90;;;14.90;100.00;96259.34;5006444;28;20104;-77
2023/08/03 01:51:56;;;;;;;9.13;1.45;;;15.40;99.90;;;14.83;100.00;96250.34;4999941;28;20120;-76
2023/08/03 01:54:23;;;;;;;9.85;1.00;;;15.40;99.90;;;14.82;100.00;96259.13;4990249;28;20084;-77
2023/08/03 01:56:54;;;;;;;8.77;1.13;;;15.30;99.90;;;14.78;100.00;96255.94;5000069;28;20424;-77
2023/08/03 01:59:21;;;;;;;8.32;1.50;;;15.30;99.90;;;14.81;100.00;96263.53;5003071;28;20050;-77
2023/08/03 02:01:48;;;;;;;5.22;1.15;;;15.30;99.90;;;14.93;100.00;96259.09;5000892;28;20056;-77
2023/08/03 02:04:16;;;;;;;11.15;0.90;;;15.30;99.90;;;14.90;100.00;96255.91;5006359;28;20668;-77
2023/08/03 02:06:51;;;;;;;7.45;0.70;;;15.30;99.90;;;14.88;100.00;96258.63;5002985;28;20924;-78
2023/08/03 02:09:19;;;;;;;5.57;0.95;;;15.30;99.90;;;14.89;100.00;96243.78;5006116;28;20144;-77
2023/08/03 02:11:46;;;;;;;10.00;0.90;;;15.40;99.90;;;14.90;100.00;96233.22;5005637;28;20065;-77
2023/08/03 02:14:13;;;;;;;9.23;1.05;;;15.40;99.90;;;14.78;100.00;96226.34;5006040;28;20042;-77
2023/08/03 02:16:40;;;;;;;6.97;1.17;;;15.40;99.90;;;14.95;100.00;96241.50;4987426;28;20413;-77
2023/08/03 02:19:07;;;;;;;7.63;0.98;;;15.40;99.90;;;14.85;100.00;96238.81;5002938;28;20053;-76
2023/08/03 02:21:34;;;;;;;9.25;0.60;;;15.30;99.90;;;14.92;100.00;96225.25;5004928;28;20073;-76
2023/08/03 02:24:02;;;;;;;6.25;0.90;;;15.30;99.90;;;14.95;100.00;96223.22;5004996;28;20046;-76
2023/08/03 02:26:31;;;;;;;6.20;0.98;;;15.40;99.90;;;15.09;100.00;96234.31;5007305;28;20050;-76
2023/08/03 02:28:58;;;;;;;9.98;1.13;;;15.30;99.90;;;14.96;100.00;96247.56;5006989;28;20112;-78
2023/08/03 02:31:26;;;;;;;10.38;1.00;;;15.30;99.90;;;14.89;100.00;96222.88;5005516;28;20581;-76
2023/08/03 02:33:53;;;;;;;4.03;0.60;;;15.30;99.90;;;14.75;100.00;96203.09;5007627;28;20471;-77
2023/08/03 02:36:20;;;;;;;7.18;1.13;;;15.30;99.90;;;14.66;100.00;96219.53;5004165;28;20104;-77
2023/08/03 02:38:47;;;;;;;5.45;1.13;;;15.10;99.90;;;14.62;100.00;96213.75;5002810;28;20046;-77
2023/08/03 02:41:14;;;;;;;6.68;0.90;;;15.10;99.90;;;14.55;100.00;96241.28;5004058;28;20046;-77
2023/08/03 02:43:42;;;;;;;6.53;0.77;;;15.00;99.90;;;14.46;100.00;96247.19;5005140;28;20105;-76
2023/08/03 02:46:10;;;;;;;5.70;0.63;;;15.00;99.90;;;14.45;100.00;96241.16;5003666;28;20185;-76
2023/08/03 02:48:37;;;;;;;13.82;0.90;;;15.00;99.90;;;14.50;100.00;96259.06;5006127;28;20053;-76
2023/08/03 02:51:04;;;;;;;9.88;1.13;;;15.00;99.90;;;14.56;100.00;96251.59;4998800;28;20050;-77
2023/08/03 02:53:31;;;;;;;6.25;0.93;;;15.00;99.90;;;14.53;100.00;96237.91;5005058;28;20360;-77
2023/08/03 02:55:58;;;;;;;8.75;1.13;;;15.00;99.90;;;14.57;100.00;96260.25;5004769;28;20046;-77
2023/08/03 02:58:26;;;;;;;10.52;1.33;;;15.00;99.90;;;14.51;100.00;96256.34;5003678;28;20042;-76
2023/08/03 03:00:53;;;;;;;6.43;0.85;;;15.00;99.90;;;14.64;100.00;96270.13;5005284;28;20124;-76
2023/08/03 03:03:20;;;;;;;6.32;0.90;;;15.00;99.90;;;14.55;100.00;96270.00;5001122;28;20042;-76
2023/08/03 03:05:47;;;;;;;6.18;0.88;;;15.00;99.90;;;14.55;100.00;96246.50;5001127;28;20141;-75
2023/08/03 03:08:14;;;;;;;9.15;1.00;;;15.10;99.90;;;14.66;100.00;96275.19;5002306;28;20088;-76
2023/08/03 03:10:41;;;;;;;7.05;1.08;;;15.10;99.90;;;14.67;100.00;96281.28;5005445;28;20045;-76
2023/08/03 03:13:08;;;;;;;6.47;0.90;;;15.10;99.90;;;14.69;100.00;96272.34;5003407;28;20045;-76
2023/08/03 03:15:35;;;;;;;7.35;0.90;;;15.10;99.90;;;14.78;100.00;96268.16;5005961;28;20108;-76
2023/08/03 03:18:02;;;;;;;12.77;0.85;;;15.10;99.90;;;14.73;100.00;96263.28;5008731;28;20085;-76
2023/08/03 03:20:30;;;;;;;5.22;0.85;;;15.10;99.90;;;14.88;100.00;96273.50;5009849;28;20552;-77
2023/08/03 03:22:57;;;;;;;7.15;0.85;;;15.10;99.90;;;14.87;100.00;96272.66;5006250;28;20053;-76
2023/08/03 03:25:24;;;;;;;14.18;1.60;;;15.20;99.90;;;14.85;100.00;96249.25;5005519;28;20054;-77
2023/08/03 03:27:51;;;;;;;7.88;0.95;;;15.20;99.90;;;14.94;100.00;96258.16;5009110;28;20678;-76
2023/08/03 03:30:18;;;;;;;9.68;1.05;;;15.20;99.90;;;15.15;100.00;96270.41;5006181;28;20057;-77
2023/08/03 03:32:45;;;;;;;7.13;1.05;;;15.30;99.90;;;15.12;100.00;96260.19;5008420;28;20074;-77
2023/08/03 03:35:13;;;;;;;5.97;0.70;;;15.40;99.90;;;15.12;100.00;96227.06;5007059;28;20440;-77
2023/08/03 03:37:40;;;;;;;8.52;1.35;;;15.50;99.90;;;15.17;100.00;96265.91;5010018;28;20053;-76
2023/08/03 03:40:08;;;;;;;6.50;0.95;;;15.50;99.90;;;15.22;100.00;96271.56;5010295;28;20085;-77
2023/08/03 03:42:35;;;;;;;12.75;2.05;;;15.50;99.90;;;15.10;100.00;96252.50;5005546;28;20452;-76
2023/08/03 03:45:03;;;;;;;4.80;0.88;;;15.50;99.90;;;15.14;100.00;96261.72;5007610;28;20081;-76
2023/08/03 03:47:30;;;;;;;6.05;1.20;;;15.50;99.90;;;15.10;100.00;96267.31;5008622;28;20608;-76
2023/08/03 03:49:57;;;;;;;7.53;0.95;;;15.50;99.90;;;15.19;100.00;96272.66;5005987;28;20092;-77
2023/08/03 03:52:24;;;;;;;3.95;0.70;;;15.50;99.90;;;15.17;100.00;96302.50;5005532;28;20053;-78
2023/08/03 03:54:51;;;;;;;9.93;1.02;;;15.60;99.90;;;15.16;100.00;96231.06;5007315;28;20050;-76
2023/08/03 03:57:18;;;;;;;7.35;1.15;;;15.60;99.90;;;15.19;100.00;96258.72;5009710;28;20056;-77
2023/08/03 03:59:45;;;;;;;6.95;0.98;;;15.60;99.90;;;15.28;100.00;96255.38;5011168;28;20050;-77
2023/08/03 04:02:12;;;;;;;6.30;1.10;;;15.70;99.90;;;15.32;100.00;96284.69;5009819;28;20057;-77
2023/08/03 04:04:39;;;;;;;12.85;1.15;;;15.60;99.90;;;15.21;100.00;96249.84;5005808;28;20046;-77
2023/08/03 04:07:06;;;;;;;8.40;0.98;;;15.70;99.90;;;15.30;100.00;96261.28;5007222;28;20132;-76
2023/08/03 04:09:34;;;;;;;7.45;1.20;;;15.70;99.90;;;15.35;100.00;96258.28;5004940;28;20818;-77
2023/08/03 04:12:01;;;;;;;7.68;1.00;;;15.70;99.90;;;14.97;100.00;96257.88;5008727;28;20103;-77
2023/08/03 04:14:31;;;;;;;10.20;1.17;;;15.60;99.90;;;14.61;100.00;96282.56;5009110;28;20061;-78
2023/08/03 04:16:58;;;;;;;7.40;0.70;;;15.40;99.90;;;14.39;100.00;96304.28;5006654;28;20050;-77
2023/08/03 04:19:25;;;;;;;8.13;1.17;;;15.20;99.90;;;14.14;100.00;96321.00;5004399;28;20057;-77
2023/08/03 04:21:52;;;;;;;12.05;1.17;;;14.90;99.90;;;13.92;100.00;96355.75;5008865;28;20160;-77
2023/08/03 04:24:19;;;;;;;6.25;1.23;;;14.60;99.90;;;13.91;100.00;96362.75;5006340;28;20097;-78
2023/08/03 04:26:46;;;;;;;11.18;1.33;;;14.50;99.90;;;13.81;100.00;96377.41;5011535;28;20054;-77
2023/08/03 04:29:14;;;;;;;9.73;1.13;;;14.30;99.90;;;13.82;100.00;96399.94;5010942;28;20584;-77
2023/08/03 04:31:41;;;;;;;7.75;1.10;;;14.30;99.90;;;13.80;100.00;96422.72;5009551;28;20108;-78
2023/08/03 04:34:09;;;;;;;9.30;1.38;;;14.30;99.90;;;13.80;100.00;96428.75;5011386;28;20507;-78
2023/08/03 04:36:36;;;;;;;8.93;1.25;;;14.30;99.90;;;13.90;100.00;96431.50;5011650;28;20489;-78
2023/08/03 04:39:03;;;;;;;14.07;1.30;;;14.30;99.90;;;13.88;100.00;96417.75;4992387;28;20099;-76
2023/08/03 04:41:30;;;;;;;7.68;1.17;;;14.30;99.90;;;13.93;100.00;96446.91;5009464;28;20120;-77
2023/08/03 04:43:57;;;;;;;10.90;1.10;;;14.30;99.90;;;13.85;100.00;96435.41;5007480;28;20571;-77
2023/08/03 04:46:24;;;;;;;8.43;0.90;;;14.30;99.90;;;13.84;100.00;96434.56;5009436;28;20548;-77
2023/08/03 04:48:51;;;;;;;8.40;1.10;;;14.30;99.90;;;13.90;100.00;96449.78;5006906;28;20049;-77
2023/08/03 04:51:19;;;;;;;8.93;1.10;;;14.30;99.90;;;13.92;100.00;96441.84;5007840;28;20053;-77
2023/08/03 04:53:45;;;;;;;7.32;1.63;;;14.30;99.90;;;13.87;100.00;96449.19;5004119;28;20058;-77
2023/08/03 04:56:13;;;;;;;6.97;1.10;;;14.40;99.90;;;13.91;100.00;96446.22;5008908;28;20804;-78
2023/08/03 04:58:39;;;;;;;10.00;1.45;;;14.40;99.90;;;13.87;100.00;96449.19;5005620;28;20077;-77
2023/08/03 05:01:07;;;;;;;11.60;1.02;;;14.30;99.90;;;14.00;100.00;96442.09;5004839;28;20057;-77
2023/08/03 05:03:34;;;;;;;10.93;1.33;;;14.40;99.90;;;14.01;100.00;96456.81;5002940;28;20077;-77
2023/08/03 05:06:01;;;;;;;9.43;0.98;;;14.50;99.90;;;13.95;100.00;96454.63;5005845;28;20053;-77
2023/08/03 05:08:32;;;;;;;11.70;1.45;;;14.50;99.90;;;13.97;100.00;96453.59;5008725;28;20080;-77
2023/08/03 05:10:59;;;;;;;8.82;1.23;;;14.40;99.90;;;13.95;100.00;96442.41;5009948;28;20496;-76
2023/08/03 05:13:26;;;;;;;12.10;1.33;;;14.40;99.90;;;14.05;100.00;96480.88;5006651;28;20477;-76
2023/08/03 05:15:53;;;;;;;8.68;1.25;;;14.40;99.90;;;14.19;100.00;96463.25;5004288;28;20132;-77
2023/08/03 05:18:20;;;;;;;10.48;1.27;;;14.50;99.90;;;14.14;100.00;96454.94;5007047;28;20046;-77
2023/08/03 05:20:47;;;;;;;7.32;1.42;;;14.50;99.90;;;14.13;100.00;96457.66;5006947;28;20054;-77
2023/08/03 05:23:14;;;;;;;7.80;1.35;;;14.50;99.90;;;14.17;100.00;96454.72;5006509;28;20057;-77
2023/08/03 05:25:41;;;;;;;8.70;1.27;;;14.50;99.90;;;14.15;100.00;96453.16;5003555;28;20053;-76
2023/08/03 05:28:08;;;;;;;11.07;1.17;;;14.50;99.90;;;14.26;100.00;96468.03;5003696;28;20046;-77
2023/08/03 05:30:36;;;;;;;6.93;1.10;;;14.50;99.90;;;14.36;100.00;96448.09;5008114;28;20054;-76
2023/08/03 05:33:03;;;;;;;6.43;1.17;;;14.60;99.90;;;14.38;100.00;96447.03;5005453;28;20054;-77
2023/08/03 05:35:31;;;;;;;8.98;1.00;;;14.70;99.90;;;14.45;100.00;96452.63;5006174;28;20091;-77
2023/08/03 05:37:58;;;;;;;11.55;1.30;;;14.80;99.90;;;14.35;100.00;96442.06;5007501;28;20576;-77
2023/08/03 05:40:25;;;;;;;10.93;1.45;;;14.70;99.90;;;14.28;100.00;96448.69;5007439;28;20572;-77
2023/08/03 05:42:52;;;;;;;8.13;1.30;;;14.80;99.90;;;14.38;100.00;96430.53;5005726;28;20478;-77
2023/08/03 05:45:41;;;;;;;12.30;1.27;;;14.70;99.90;;;14.33;100.00;96446.56;5006092;28;20096;-76
2023/08/03 05:48:15;;;;;;;8.65;1.10;;;14.70;99.90;;;14.38;100.00;96441.00;5002661;28;20164;-77
2023/08/03 05:50:54;;;;;;;7.70;1.23;;;14.70;99.90;;;14.30;100.00;96446.81;4983800;28;20109;-77
2023/08/03 05:53:21;;;;;;;8.00;1.38;;;14.70;99.90;;;14.33;100.00;96437.91;5004727;28;20054;-77
2023/08/03 05:55:48;;;;;;;9.15;1.15;;;14.70;99.90;;;14.29;100.00;96439.06;5006108;28;20065;-76
2023/08/03 05:58:36;;;;;;;9.02;1.15;;;14.80;99.90;;;14.38;100.00;96438.38;5005689;28;20580;-76
2023/08/03 06:01:03;;;;;;;13.65;1.58;;;14.70;99.90;;;14.37;100.00;96440.16;5006333;28;20132;-76
2023/08/03 06:03:35;;;;;;;14.20;1.52;;;14.80;99.90;;;14.40;100.00;96415.59;5002371;28;20100;-76
2023/08/03 06:06:08;;;;;;;12.60;1.20;;;14.80;99.90;;;14.42;100.00;96434.59;5004890;28;20670;-77
2023/08/03 06:08:36;;;;;;;9.32;1.05;;;14.80;99.90;;;14.38;100.00;96438.38;4987688;28;20045;-78
2023/08/03 06:11:04;;;;;;;9.65;1.10;;;14.80;99.90;;;14.33;100.00;96437.91;5005594;28;20527;-78
2023/08/03 06:13:34;;;;;;;7.15;1.15;;;14.80;99.90;;;14.47;100.00;96457.75;5005605;28;20050;-76
2023/08/03 06:16:12;;;;;;;11.18;1.52;;;14.80;99.90;;;14.40;100.00;96455.59;5004897;28;20065;-76
2023/08/03 06:18:54;;;;;;;9.32;1.15;;;14.80;99.90;;;14.36;100.00;96443.69;5001302;28;20050;-77
2023/08/03 06:21:25;;;;;;;10.60;1.65;;;14.90;99.90;;;14.21;100.00;96435.28;5002824;28;20517;-76
2023/08/03 06:23:57;;;;;;;8.45;1.00;;;14.80;99.90;;;14.20;100.00;96467.53;5004640;28;20069;-76
2023/08/03 06:26:26;;;;;;;8.18;1.00;;;14.70;99.90;;;14.11;100.00;96464.78;4996514;28;20467;-77
2023/08/03 06:28:54;;;;;;;9.40;1.00;;;14.60;99.90;;;14.19;100.00;96478.09;5007579;28;20142;-77
2023/08/03 06:31:35;;;;;;;10.68;1.30;;;14.60;99.90;;;14.09;100.00;96472.69;5004434;28;20061;-77
2023/08/03 06:34:03;;;;;;;9.38;1.05;;;14.60;99.90;;;14.06;100.00;96487.78;4999432;28;20045;-77
2023/08/03 06:36:31;;;;;;;11.30;1.30;;;14.50;99.90;;;13.97;100.00;96500.53;5004714;28;20057;-78
2023/08/03 06:38:58;;;;;;;7.22;1.27;;;14.40;99.90;;;13.97;100.00;96490.09;5003414;28;20512;-77
2023/08/03 06:41:26;;;;;;;9.85;1.33;;;14.40;99.90;;;14.04;100.00;96489.66;5007871;28;20060;-77
2023/08/03 06:43:55;;;;;;;11.27;1.42;;;14.50;99.90;;;14.05;100.00;96506.97;5002831;28;20062;-77
2023/08/03 06:46:24;;;;;;;12.20;1.48;;;14.50;99.90;;;14.14;100.00;96507.16;4998118;28;20120;-77
2023/08/03 06:48:52;;;;;;;14.60;1.77;;;14.50;99.90;;;14.05;100.00;96502.59;5002453;28;20062;-76
2023/08/03 06:51:20;;;;;;;9.88;1.42;;;14.60;99.90;;;14.00;100.00;96522.97;4998905;28;20045;-77
2023/08/03 06:53:47;;;;;;;9.88;1.40;;;14.50;99.90;;;13.98;100.00;96525.69;5001431;28;20081;-78
2023/08/03 06:56:14;;;;;;;14.60;2.25;;;14.50;99.90;;;13.96;100.00;96534.59;5002265;28;20448;-77
2023/08/03 06:58:41;;;;;;;17.45;2.33;;;14.40;99.90;;;13.99;100.00;96553.44;5006238;28;20089;-77
2023/08/03 07:01:08;;;;;;;11.18;1.17;;;14.40;99.90;;;13.96;100.00;96547.63;5000986;28;20041;-77
2023/08/03 07:03:36;;;;;;;11.55;1.60;;;14.30;99.90;;;13.91;100.00;96565.38;5003302;28;20053;-77
2023/08/03 07:06:04;;;;;;;11.43;1.20;;;14.30;99.90;;;13.94;100.00;96552.13;5004759;28;20449;-78
2023/08/03 07:08:31;;;;;;;12.30;1.27;;;14.30;99.90;;;13.94;100.00;96560.78;5007049;28;20152;-78
2023/08/03 07:10:58;;;;;;;13.02;1.58;;;14.30;99.90;;;13.97;100.00;96559.72;5002348;28;20069;-77
2023/08/03 07:13:26;;;;;;;12.23;1.27;;;14.30;99.90;;;14.10;100.00;96564.88;5006898;28;20157;-77
2023/08/03 07:15:54;;;;;;;8.10;1.33;;;14.40;99.90;;;14.08;100.00;96569.38;5004192;28;21047;-77
2023/08/03 07:18:22;;;;;;;12.63;1.10;;;14.40;99.90;;;14.11;100.00;96559.53;5003142;28;20081;-78
2023/08/03 07:20:49;;;;;;;7.78;1.20;;;14.50;99.90;;;14.20;100.00;96571.09;5005657;28;20065;-77
2023/08/03 07:23:16;;;;;;;10.02;1.23;;;14.50;99.90;;;14.27;100.00;96566.25;5003209;28;20045;-77
2023/08/03 07:25:44;;;;;;;7.20;1.20;;;14.60;99.90;;;14.21;100.00;96560.53;5004991;28;20100;-77
2023/08/03 07:28:11;;;;;;;11.02;1.27;;;14.60;99.90;;;14.30;100.00;96568.63;5003507;28;20068;-77
2023/08/03 07:30:38;;;;;;;9.82;1.33;;;14.70;99.90;;;14.31;100.00;96568.53;5006017;28;20050;-76
2023/08/03 07:33:05;;;;;;;12.05;1.65;;;14.70;99.90;;;14.36;100.00;96583.84;5004459;28;20664;-78
2023/08/03 07:35:36;;;;;;;7.30;1.10;;;14.70;99.90;;;14.23;100.00;96584.75;5003199;28;20115;-77
2023/08/03 07:38:06;;;;;;;7.95;1.40;;;14.70;99.90;;;14.27;100.00;96577.53;5007450;28;20049;-77
2023/08/03 07:40:33;;;;;;;6.20;0.98;;;14.70;99.90;;;14.22;100.00;96577.84;5005610;28;20088;-77
2023/08/03 07:43:00;;;;;;;14.98;1.33;;;14.70;99.90;;;14.27;100.00;96581.91;5004111;28;20042;-77
2023/08/03 07:45:27;;;;;;;5.35;0.88;;;14.70;99.90;;;14.36;100.00;96576.00;5004349;28;20054;-78
2023/08/03 07:47:57;;;;;;;8.35;0.70;;;14.70;99.90;;;14.43;100.00;96588.50;5006695;28;20089;-77
2023/08/03 07:50:26;;;;;;;5.05;0.88;;;14.70;99.90;;;14.40;100.00;96590.50;5003636;28;20128;-77
2023/08/03 07:52:53;;;;;;;8.50;0.85;;;14.70;99.90;;;14.35;100.00;96590.84;5007291;28;20527;-77
2023/08/03 07:55:20;;;;;;;5.43;0.98;;;14.70;99.90;;;14.47;100.00;96606.56;5006832;28;20042;-77
2023/08/03 07:57:47;;;;;;;7.32;1.00;;;14.80;99.90;;;14.44;100.00;96586.72;5007000;28;20421;-75
2023/08/03 08:00:15;;;;;;;7.28;1.10;;;14.80;99.90;;;14.54;100.00;96595.56;5002710;28;20120;-76
2023/08/03 08:02:45;;;;;;;10.45;0.85;;;14.80;99.90;;;14.69;100.00;96614.50;5005173;28;20507;-77
2023/08/03 08:05:12;;;;;;;7.35;1.23;;;14.80;99.90;;;14.56;100.00;96601.50;5007751;28;20133;-78
2023/08/03 08:07:39;;;;;;;7.45;0.98;;;14.90;99.90;;;14.69;100.00;96606.66;5009294;28;20157;-77
2023/08/03 08:10:07;;;;;;;3.28;0.77;;;14.90;99.90;;;14.75;100.00;96579.25;5011073;28;20050;-76
2023/08/03 08:12:34;;;;;;;5.32;0.88;;;15.00;99.90;;;14.97;100.00;96602.81;5011600;28;20061;-78
2023/08/03 08:15:01;;;;;;;7.07;0.75;;;15.20;99.90;;;15.06;100.00;96606.50;5004080;28;20058;-78
2023/08/03 08:17:28;;;;;;;3.15;0.60;;;15.20;99.90;;;15.17;100.00;96587.41;5002935;28;20049;-77
2023/08/03 08:19:57;;;;;;;5.78;0.63;;;15.30;99.90;;;15.44;100.00;96600.94;5005932;28;20096;-77
2023/08/03 08:22:24;;;;;;;5.15;0.90;;;15.50;99.90;;;15.63;100.00;96563.69;5004772;28;20042;-77
2023/08/03 08:24:51;;;;;;;4.43;0.70;;;15.80;99.90;;;15.52;100.00;96542.78;5005493;28;20061;-78
2023/08/03 08:27:18;;;;;;;4.35;0.60;;;15.80;99.90;;;15.54;100.00;96543.50;5001361;28;20053;-77
2023/08/03 08:29:46;;;;;;;5.93;0.52;;;15.80;99.90;;;15.36;100.00;96544.97;5004528;28;20619;-77
2023/08/03 08:32:13;;;;;;;2.47;0.50;;;15.70;99.90;;;15.53;100.00;96554.06;5005861;28;20053;-77
2023/08/03 08:34:40;;;;;;;3.25;0.50;;;15.60;99.90;;;15.43;100.00;96554.81;5003609;28;20172;-77
2023/08/03 08:37:08;;;;;;;3.33;0.50;;;15.60;99.90;;;15.50;100.00;96539.47;5007810;28;20062;-77
2023/08/03 08:39:36;;;;;;;3.85;0.60;;;15.60;99.90;;;15.37;100.00;96533.53;5004081;28;20147;-76
2023/08/03 08:42:14;;;;;;;7.43;0.82;;;15.70;99.90;;;15.36;100.00;96550.19;5004806;28;20084;-76
2023/08/03 08:44:42;;;;;;;3.78;1.00;;;15.60;99.90;;;15.37;100.00;96533.53;5007721;28;20053;-77
2023/08/03 08:47:09;;;;;;;4.60;0.82;;;15.60;99.90;;;15.34;100.00;96545.06;5003536;28;20120;-77
2023/08/03 08:49:39;;;;;;;5.75;0.70;;;15.60;99.90;;;15.44;100.00;96555.63;5006222;28;20058;-77
2023/08/03 08:52:09;;;;;;;4.00;0.73;;;15.60;99.90;;;15.46;100.00;96554.59;5004734;28;20056;-77
2023/08/03 08:54:37;;;;;;;3.88;0.73;;;15.80;99.90;;;15.48;100.00;96550.03;5001806;28;20548;-76
2023/08/03 08:57:07;;;;;;;4.32;0.90;;;15.80;99.90;;;15.62;100.00;96519.34;5010033;28;20100;-76
2023/08/03 09:00:05;;;;;;;3.45;0.60;;;15.80;99.90;;;15.66;100.00;96546.94;5001932;28;20141;-77
2023/08/03 09:02:33;;;;;;;4.20;0.63;;;15.90;99.90;;;15.72;100.00;96556.13;5001715;28;20046;-78
2023/08/03 09:05:15;;;;;;;3.00;0.68;;;15.90;99.90;;;15.65;100.00;96553.13;5005608;28;20778;-77
2023/08/03 09:07:43;;;;;;;4.00;0.75;;;15.90;99.90;;;15.80;100.00;96544.06;5004378;28;20065;-77
2023/08/03 09:10:11;;;;;;;5.82;1.00;;;16.00;99.90;;;15.36;100.00;96599.88;4998522;28;20393;-77
2023/08/03 09:12:42;;;;;;;4.65;0.60;;;15.90;99.90;;;15.25;100.00;96591.06;5005141;28;20365;-78
2023/08/03 09:15:09;;;;;;;6.72;0.70;;;15.80;99.90;;;15.18;100.00;96604.72;5003714;28;20046;-78
2023/08/03 09:17:36;;;;;;;3.97;0.55;;;15.60;99.90;;;15.01;100.00;96599.00;5004392;28;20049;-78
2023/08/03 09:20:04;;;;;;;4.80;0.57;;;15.50;99.90;;;14.92;100.00;96628.47;5003028;28;20081;-78
2023/08/03 09:22:44;;;;;;;4.05;0.60;;;15.40;99.90;;;15.14;100.00;96621.59;5009533;28;20080;-77
2023/08/03 09:25:14;;;;;;;2.83;0.73;;;15.40;99.90;;;15.21;100.00;96631.47;5006219;28;20054;-77
2023/08/03 09:27:57;;;;;;;2.53;0.65;;;15.50;99.90;;;15.18;100.00;96649.16;5008675;28;20293;-77
2023/08/03 09:30:25;;;;;;;3.88;0.60;;;15.40;99.90;;;14.98;100.00;96654.09;5007804;28;20132;-77
2023/08/03 09:33:14;;;;;;;3.33;0.63;;;15.30;99.90;;;15.03;100.00;96672.09;5007782;28;20594;-77
2023/08/03 09:35:45;;;;;;;2.33;0.55;;;15.30;99.90;;;15.18;100.00;96701.44;5014535;28;20100;-78
2023/08/03 09:38:24;;;;;;;1.95;0.40;;;15.30;99.90;;;15.30;100.00;96663.91;4992360;28;20112;-77
2023/08/03 09:40:52;;;;;;;3.88;0.60;;;15.40;99.90;;;15.09;100.00;96695.13;5006650;28;20061;-78
2023/08/03 09:43:23;;;;;;;2.15;0.50;;;15.40;99.90;;;15.17;100.00;96689.34;5006306;28;20046;-78
2023/08/03 09:45:55;;;;;;;3.63;0.50;;;15.50;99.90;;;15.53;100.00;96697.94;5006400;28;20137;-77
2023/08/03 09:48:23;;;;;;;2.20;0.40;;;15.70;99.90;;;15.92;100.00;96688.81;5009263;28;20080;-77
2023/08/03 09:50:53;;;;;;;1.90;0.45;;;16.20;99.90;;;16.26;100.00;96709.69;5008301;28;20045;-78
2023/08/03 09:53:26;;;;;;;2.30;0.70;;;16.40;99.90;;;16.36;100.00;96674.00;5004599;28;20088;-77
2023/08/03 09:56:00;;;;;;;1.55;0.38;;;16.60;99.90;;;16.57;100.00;96649.63;5007114;28;20132;-78
2023/08/03 09:59:03;;;;;;;1.73;0.40;;;16.60;99.90;;;16.33;100.00;96684.72;5003130;28;20061;-76
2023/08/03 10:01:35;;;;;;;0.65;0.38;;;16.60;99.90;;;16.32;100.00;96662.09;5005528;28;20050;-77
2023/08/03 10:04:05;;;;;;;1.57;0.30;;;16.60;99.90;;;16.20;100.00;96697.13;4988359;28;20046;-77
2023/08/03 10:06:36;;;;;;;1.70;0.40;;;16.30;99.90;;;15.86;100.00;96678.84;5008048;28;20312;-77
2023/08/03 10:09:06;;;;;;;1.20;0.40;;;16.30;99.90;;;15.64;100.00;96697.94;5006993;28;20576;-77
2023/08/03 10:11:40;;;;;;;4.55;0.40;;;16.20;99.90;;;15.98;100.00;96709.25;5005307;28;20557;-78
2023/08/03 10:14:12;;;;;;;1.83;0.40;;;16.40;99.90;;;15.67;100.00;96671.56;5002707;28;20074;-78
2023/08/03 10:16:41;;;;;;;1.35;0.30;;;16.20;99.90;;;15.63;100.00;96711.97;5005003;28;20077;-78